Pyatt, Arkansas
Current Conditions -  °F | °C
As of 5:55 AM on Monday 24 Nov 2014 (Local Time) from KFLP Reporting Station
Clear Clear  
Wind Chill: 33°   Ceiling: Unl
Heat Index: 41°   Visibility: 10mi
Dew Point: 28°   Wind: 15mph
Humidity: 61%   Direction: 270°W
Pressure: 29.71"   Gusts: 20mph
Location:  36.25°N, 92.84°W
Report Text: KFLP 241155Z AUTO 27013G17KT 10SM CLR 05/M02 A2971 RMK AO1 70008 10090 20050 52041
Loading
Personal Weather Stations






























Interactive Weather Map New forecast layout! Learn more

10-Day Weather Forecast

Advertisements
Track Severe Weather on mobile